Terminal Aerodrome Forecast
Issued by NWS

Home | Current Version | Previous Version | Text Only | Print | Product List | Glossary Off
Versions: 1 2 3 4 5 6 7 8 9 10 11 12 13 14 15 16 17 18

000
FTUS43 KBIS 242300
TAFMOT
TAF
KMOT 242333Z 2500/2524 30016G24KT 1SM -SN OVC006
     FM250600 31024G34KT P6SM OVC007
     FM252300 32018G26KT P6SM BKN040=

USA.gov is the U.S. government's official web portal to all federal, state and local government web resources and services.